Time;durP1;ratioP1;P1;durP2;ratioP2;P2;SDS_P1;SDS_P2;PMS_P1;PMS_P2;Temp;Humidity;BMP_temperature;BMP_pressure;BME280_temperature;BME280_humidity;BME280_pressure;Samples;Min_cycle;Max_cycle;Signal;HPM_P1;HPM_P2
2023/05/16 00:01:15;;;;;;;;;;;;;;;21.01;46.85;101829.63;5043218;28;20390;-71
2023/05/16 00:03:41;;;;;;;;;;;;;;;20.99;46.74;101828.97;5059524;28;19917;-71
2023/05/16 00:06:07;;;;;;;;;;;;;;;20.99;46.81;101834.38;5051271;28;19936;-71
2023/05/16 00:08:32;;;;;;;;;;;;;;;20.98;46.59;101838.03;5051414;28;19913;-71
2023/05/16 00:10:57;;;;;;;;;;;;;;;20.97;46.83;101836.38;5053776;28;19917;-72
2023/05/16 00:13:24;;;;;;;;;;;;;;;20.96;46.47;101840.06;5049722;28;19947;-72
2023/05/16 00:15:53;;;;;;;;;;;;;;;20.95;46.84;101833.81;5050168;28;19948;-72
2023/05/16 00:18:18;;;;;;;;;;;;;;;20.95;46.71;101827.56;5020694;28;19921;-71
2023/05/16 00:20:44;;;;;;;;;;;;;;;20.93;46.68;101838.53;5051064;28;20392;-72
2023/05/16 00:23:09;;;;;;;;;;;;;;;20.93;46.49;101837.69;5050761;28;20047;-71
2023/05/16 00:25:35;;;;;;;;;;;;;;;20.91;46.50;101832.44;5054417;28;19967;-71
2023/05/16 00:28:00;;;;;;;;;;;;;;;20.90;46.63;101832.63;5048618;28;19936;-72
2023/05/16 00:30:25;;;;;;;;;;;;;;;20.90;46.54;101835.31;5056326;28;19948;-72
2023/05/16 00:32:51;;;;;;;;;;;;;;;20.89;46.39;101831.75;5051796;28;19952;-72
2023/05/16 00:35:16;;;;;;;;;;;;;;;20.88;46.62;101834.63;5049944;28;19921;-71
2023/05/16 00:37:41;;;;;;;;;;;;;;;20.87;46.53;101832.94;5053499;28;19921;-71
2023/05/16 00:40:06;;;;;;;;;;;;;;;20.86;46.63;101834.78;5049115;28;19983;-71
2023/05/16 00:42:32;;;;;;;;;;;;;;;20.86;46.35;101839.34;5051622;28;20058;-71
2023/05/16 00:44:57;;;;;;;;;;;;;;;20.84;46.48;101836.78;5048933;28;19920;-71
2023/05/16 00:47:22;;;;;;;;;;;;;;;20.85;46.39;101843.03;5050950;28;19920;-71
2023/05/16 00:49:47;;;;;;;;;;;;;;;20.83;46.41;101845.06;5049456;28;19917;-71
2023/05/16 00:52:12;;;;;;;;;;;;;;;20.81;46.31;101847.06;5034777;28;19928;-72
2023/05/16 00:54:37;;;;;;;;;;;;;;;20.81;46.60;101849.75;5050141;28;19925;-71
2023/05/16 00:57:03;;;;;;;;;;;;;;;20.80;46.56;101843.50;5045003;28;19984;-71
2023/05/16 00:59:28;;;;;;;;;;;;;;;20.79;46.54;101855.34;5055647;28;19913;-71
2023/05/16 01:01:55;;;;;;;;;;;;;;;20.78;46.33;101856.34;5048569;28;19917;-71
2023/05/16 01:04:20;;;;;;;;;;;;;;;20.78;46.31;101856.34;5055949;28;19976;-72
2023/05/16 01:06:45;;;;;;;;;;;;;;;20.77;46.46;101853.78;5031885;28;19920;-71
2023/05/16 01:09:11;;;;;;;;;;;;;;;20.75;46.50;101851.25;5048586;28;19917;-71
2023/05/16 01:11:55;;;;;;;;;;;;;;;20.74;46.37;101854.97;5053636;28;19916;-71
2023/05/16 01:14:28;;;;;;;;;;;;;;;20.73;46.34;101853.28;5044797;28;19921;-70
2023/05/16 01:17:07;;;;;;;;;;;;;;;20.72;46.29;101848.84;5031809;28;19971;-71
2023/05/16 01:19:38;;;;;;;;;;;;;;;20.71;46.43;101857.97;5033149;28;19976;-71
2023/05/16 01:22:04;;;;;;;;;;;;;;;20.70;46.23;101865.25;5050039;28;19935;-71
2023/05/16 01:24:33;;;;;;;;;;;;;;;20.70;46.21;101864.41;5051289;28;19917;-71
2023/05/16 01:26:59;;;;;;;;;;;;;;;20.68;46.56;101861.84;5037098;28;19917;-71
2023/05/16 01:29:24;;;;;;;;;;;;;;;20.67;46.50;101860.16;5049189;28;19920;-72
2023/05/16 01:31:49;;;;;;;;;;;;;;;20.65;46.23;101856.78;5054453;28;19936;-71
2023/05/16 01:34:14;;;;;;;;;;;;;;;20.64;46.38;101857.75;5048080;28;19920;-71
2023/05/16 01:36:40;;;;;;;;;;;;;;;20.64;46.37;101863.16;5049807;28;19917;-71
2023/05/16 01:39:24;;;;;;;;;;;;;;;20.63;46.15;101860.63;5053201;28;19914;-70
2023/05/16 01:42:08;;;;;;;;;;;;;;;20.61;46.09;101860.78;5051772;28;19917;-71
2023/05/16 01:44:39;;;;;;;;;;;;;;;20.60;46.04;101860.91;5052308;28;20259;-71
2023/05/16 01:47:07;;;;;;;;;;;;;;;20.60;46.23;101861.81;5042297;28;19980;-72
2023/05/16 01:49:34;;;;;;;;;;;;;;;20.59;46.14;101862.78;5024298;28;19917;-71
2023/05/16 01:52:00;;;;;;;;;;;;;;;20.57;46.03;101864.81;5053611;28;19924;-72
2023/05/16 01:54:25;;;;;;;;;;;;;;;20.57;46.22;101861.25;5047924;28;19924;-71
2023/05/16 01:56:51;;;;;;;;;;;;;;;20.56;46.30;101862.25;5048619;28;19921;-71
2023/05/16 01:59:17;;;;;;;;;;;;;;;20.55;46.29;101871.34;5043356;28;19936;-71
2023/05/16 02:01:42;;;;;;;;;;;;;;;20.54;46.25;101872.38;5043822;28;19965;-71
2023/05/16 02:04:08;;;;;;;;;;;;;;;20.53;46.34;101866.13;5053381;28;19928;-71
2023/05/16 02:06:33;;;;;;;;;;;;;;;20.52;46.22;101863.56;5054439;28;19963;-71
2023/05/16 02:08:58;;;;;;;;;;;;;;;20.51;46.21;101864.56;5052258;28;19913;-72
2023/05/16 02:11:23;;;;;;;;;;;;;;;20.51;46.21;101859.16;5046747;28;19964;-73
2023/05/16 02:13:48;;;;;;;;;;;;;;;20.49;45.94;101864.72;5052443;28;20360;-71
2023/05/16 02:16:14;;;;;;;;;;;;;;;20.49;46.00;101862.03;5052215;28;19937;-71
2023/05/16 02:18:40;;;;;;;;;;;;;;;20.47;45.91;101870.28;5051428;28;20374;-71
2023/05/16 02:21:05;;;;;;;;;;;;;;;20.46;45.95;101863.16;5057899;28;19960;-71
2023/05/16 02:23:31;;;;;;;;;;;;;;;20.46;46.05;101868.56;5032590;28;19917;-71
2023/05/16 02:25:56;;;;;;;;;;;;;;;20.44;46.16;101867.88;5059738;28;19912;-71
2023/05/16 02:28:21;;;;;;;;;;;;;;;20.44;45.92;101862.47;5054037;28;19935;-72
2023/05/16 02:30:54;;;;;;;;;;;;;;;20.43;46.13;101870.72;5052555;28;19960;-71
2023/05/16 02:33:19;;;;;;;;;;;;;;;20.42;45.91;101874.44;5038121;28;19917;-72
2023/05/16 02:35:45;;;;;;;;;;;;;;;20.41;46.08;101875.44;5052006;28;19967;-72
2023/05/16 02:38:10;;;;;;;;;;;;;;;20.40;46.06;101876.44;5052358;28;19925;-71
2023/05/16 02:40:35;;;;;;;;;;;;;;;20.38;46.14;101873.88;5049790;28;19913;-72
2023/05/16 02:43:00;;;;;;;;;;;;;;;20.38;46.03;101879.28;5053989;28;20400;-72
2023/05/16 02:45:25;;;;;;;;;;;;;;;20.37;45.82;101880.28;5051396;28;19944;-71
2023/05/16 02:47:50;;;;;;;;;;;;;;;20.37;45.98;101884.84;5054411;28;19934;-71
2023/05/16 02:50:16;;;;;;;;;;;;;;;20.36;45.76;101880.47;5052392;28;19935;-71
2023/05/16 02:52:41;;;;;;;;;;;;;;;20.34;46.12;101883.28;5047869;28;20035;-71
2023/05/16 02:55:06;;;;;;;;;;;;;;;20.33;45.88;101887.00;5055823;28;19913;-72
2023/05/16 02:57:31;;;;;;;;;;;;;;;20.33;45.86;101883.47;5051148;28;19917;-71
2023/05/16 02:59:57;;;;;;;;;;;;;;;20.32;46.05;101889.88;5055548;28;19917;-71
2023/05/16 03:02:23;;;;;;;;;;;;;;;20.31;46.00;101888.19;5048830;28;19977;-72
2023/05/16 03:04:48;;;;;;;;;;;;;;;20.30;45.80;101891.84;5052209;28;19929;-71
2023/05/16 03:07:14;;;;;;;;;;;;;;;20.28;46.03;101897.44;5051743;28;19968;-71
2023/05/16 03:09:39;;;;;;;;;;;;;;;20.29;46.03;101892.88;5053883;28;19913;-73
2023/05/16 03:12:04;;;;;;;;;;;;;;;20.28;45.70;101886.63;5050694;28;19913;-72
2023/05/16 03:14:30;;;;;;;;;;;;;;;20.27;45.89;101889.50;5052410;28;19916;-72
2023/05/16 03:16:55;;;;;;;;;;;;;;;20.26;45.92;101893.16;5052006;28;19917;-72
2023/05/16 03:19:20;;;;;;;;;;;;;;;20.24;45.86;101887.94;5043225;28;19940;-72
2023/05/16 03:21:45;;;;;;;;;;;;;;;20.23;45.70;101891.66;5057333;28;19917;-72
2023/05/16 03:24:10;;;;;;;;;;;;;;;20.22;46.04;101890.81;5049781;28;19924;-72
2023/05/16 03:26:35;;;;;;;;;;;;;;;20.22;45.81;101900.75;5057731;28;19912;-72
2023/05/16 03:29:01;;;;;;;;;;;;;;;20.21;45.61;101899.03;5051980;28;19970;-72
2023/05/16 03:31:26;;;;;;;;;;;;;;;20.20;45.88;101890.09;5037255;28;20004;-72
2023/05/16 03:33:51;;;;;;;;;;;;;;;20.20;45.65;101908.16;5052565;28;19967;-72
2023/05/16 03:36:16;;;;;;;;;;;;;;;20.18;45.63;101904.75;5050081;28;20023;-72
2023/05/16 03:38:41;;;;;;;;;;;;;;;20.17;45.76;101914.69;5037795;28;20039;-72
2023/05/16 03:41:07;;;;;;;;;;;;;;;20.16;45.58;101909.44;5048836;28;19913;-72
2023/05/16 03:43:32;;;;;;;;;;;;;;;20.15;45.89;101911.31;5052658;28;19917;-73
2023/05/16 03:45:57;;;;;;;;;;;;;;;20.15;45.78;101913.16;5041667;28;19932;-72
2023/05/16 03:48:22;;;;;;;;;;;;;;;20.14;45.77;101914.16;5055468;28;19935;-73
2023/05/16 03:50:47;;;;;;;;;;;;;;;20.13;45.63;101921.38;5043598;28;19917;-72
2023/05/16 03:53:13;;;;;;;;;;;;;;;20.12;45.61;101922.41;5056727;28;20405;-72
2023/05/16 03:55:38;;;;;;;;;;;;;;;20.11;45.75;101926.13;5053919;28;19924;-69
2023/05/16 03:58:03;;;;;;;;;;;;;;;20.10;45.79;101929.81;5039107;28;20405;-69
2023/05/16 04:00:28;;;;;;;;;;;;;;;20.10;45.54;101928.97;5052523;28;19917;-70
2023/05/16 04:02:53;;;;;;;;;;;;;;;20.10;45.56;101937.06;5049417;28;20282;-69
2023/05/16 04:05:19;;;;;;;;;;;;;;;20.09;45.92;101938.06;5036461;28;19982;-70
2023/05/16 04:07:44;;;;;;;;;;;;;;;20.07;45.74;101932.81;5052921;28;19920;-69
2023/05/16 04:10:09;;;;;;;;;;;;;;;20.07;45.71;101940.06;5053131;28;19931;-70
2023/05/16 04:12:35;;;;;;;;;;;;;;;20.07;45.84;101931.97;5027818;28;19926;-71
2023/05/16 04:15:00;;;;;;;;;;;;;;;20.05;45.61;101932.13;5032303;28;19925;-70
2023/05/16 04:17:26;;;;;;;;;;;;;;;20.05;45.74;101942.06;5032156;28;19921;-71
2023/05/16 04:19:51;;;;;;;;;;;;;;;20.04;45.70;101938.50;5032929;28;19913;-72
2023/05/16 04:22:16;;;;;;;;;;;;;;;20.05;45.67;101945.63;5033332;28;19917;-72
2023/05/16 04:24:41;;;;;;;;;;;;;;;20.04;46.00;101934.97;5029552;28;19988;-71
2023/05/16 04:27:07;;;;;;;;;;;;;;;20.05;46.14;101942.06;5033864;28;19913;-73
2023/05/16 04:29:33;;;;;;;;;;;;;;;20.05;46.19;101947.44;5028471;28;19913;-73
2023/05/16 04:31:58;;;;;;;;;;;;;;;20.04;46.26;101949.31;5029496;28;19974;-73
2023/05/16 04:34:26;;;;;;;;;;;;;;;20.05;46.35;101956.44;5028859;28;19913;-73
2023/05/16 04:36:52;;;;;;;;;;;;;;;20.05;46.25;101956.44;5033253;28;19917;-73
2023/05/16 04:39:17;;;;;;;;;;;;;;;20.05;46.66;101955.56;5032370;28;19993;-72
2023/05/16 04:41:42;;;;;;;;;;;;;;;20.05;46.53;101952.84;5039574;28;19913;-73
2023/05/16 04:44:09;;;;;;;;;;;;;;;20.05;46.48;101955.56;5032732;28;19918;-73
2023/05/16 04:46:35;;;;;;;;;;;;;;;20.05;46.52;101956.44;5030364;28;19984;-74
2023/05/16 04:49:00;;;;;;;;;;;;;;;20.05;46.52;101955.56;5036474;28;19914;-73
2023/05/16 04:51:25;;;;;;;;;;;;;;;20.05;46.77;101960.94;5028472;28;19924;-74
2023/05/16 04:53:50;;;;;;;;;;;;;;;20.05;46.89;101956.44;5031708;28;19914;-72
2023/05/16 04:56:16;;;;;;;;;;;;;;;20.06;46.65;101968.06;5031093;28;19950;-73
2023/05/16 04:58:41;;;;;;;;;;;;;;;20.05;46.74;101953.72;5041618;28;19914;-73
2023/05/16 05:01:06;;;;;;;;;;;;;;;20.05;46.48;101960.94;5015396;28;19913;-73
2023/05/16 05:03:34;;;;;;;;;;;;;;;20.05;46.46;101966.34;5027452;28;19917;-73
2023/05/16 05:06:00;;;;;;;;;;;;;;;20.04;46.43;101960.09;5028132;28;19918;-73
2023/05/16 05:08:25;;;;;;;;;;;;;;;20.04;46.61;101967.34;5031709;28;19947;-73
2023/05/16 05:10:50;;;;;;;;;;;;;;;20.03;46.50;101969.22;5036326;28;19913;-73
2023/05/16 05:13:16;;;;;;;;;;;;;;;20.03;46.52;101977.31;5039147;28;19975;-73
2023/05/16 05:15:41;;;;;;;;;;;;;;;20.04;46.59;101978.16;5059507;28;19912;-72
2023/05/16 05:18:06;;;;;;;;;;;;;;;20.03;46.71;101976.47;5050843;28;19923;-73
2023/05/16 05:20:31;;;;;;;;;;;;;;;20.03;46.66;101982.72;5051596;28;19913;-74
2023/05/16 05:22:56;;;;;;;;;;;;;;;20.03;46.86;101989.97;5034921;28;19960;-71
2023/05/16 05:25:21;;;;;;;;;;;;;;;20.03;46.88;101987.25;5050976;28;19913;-72
2023/05/16 05:27:47;;;;;;;;;;;;;;;20.03;46.53;101984.56;5057202;28;19940;-73
2023/05/16 05:30:12;;;;;;;;;;;;;;;20.01;46.68;101989.25;5053038;28;19920;-73
2023/05/16 05:32:37;;;;;;;;;;;;;;;20.02;46.66;101994.50;5041115;28;19952;-72
2023/05/16 05:35:02;;;;;;;;;;;;;;;20.01;46.56;101987.41;5052837;28;19972;-74
2023/05/16 05:37:28;;;;;;;;;;;;;;;20.02;46.61;101989.13;5042020;28;19932;-73
2023/05/16 05:39:53;;;;;;;;;;;;;;;20.01;46.61;101986.53;5051939;28;19913;-72
2023/05/16 05:42:18;;;;;;;;;;;;;;;20.02;46.91;101993.66;5058742;28;19924;-72
2023/05/16 05:44:43;;;;;;;;;;;;;;;20.00;46.58;101999.19;5056976;28;19920;-73
2023/05/16 05:47:08;;;;;;;;;;;;;;;19.98;46.42;101996.66;5052834;28;19917;-71
2023/05/16 05:49:34;;;;;;;;;;;;;;;19.98;46.64;101996.66;5058251;28;20462;-71
2023/05/16 05:52:00;;;;;;;;;;;;;;;19.98;46.38;102010.16;5053546;28;19923;-72
2023/05/16 05:54:25;;;;;;;;;;;;;;;19.97;46.33;102000.38;5052974;28;20004;-73
2023/05/16 05:56:50;;;;;;;;;;;;;;;19.44;46.53;101913.78;5052867;28;19924;-73
2023/05/16 05:59:15;;;;;;;;;;;;;;;19.97;46.34;102004.91;5054081;28;19963;-73
2023/05/16 06:01:41;;;;;;;;;;;;;;;19.97;46.51;102002.22;5052509;28;19913;-74
2023/05/16 06:04:06;;;;;;;;;;;;;;;19.96;46.46;102005.88;5056299;28;20255;-73
2023/05/16 06:06:31;;;;;;;;;;;;;;;19.97;46.20;102010.31;5052902;28;19971;-74
2023/05/16 06:08:59;;;;;;;;;;;;;;;19.96;46.36;102017.56;5054697;28;19992;-70
2023/05/16 06:11:25;;;;;;;;;;;;;;;19.96;46.32;102006.78;5058118;28;19916;-70
2023/05/16 06:13:50;;;;;;;;;;;;;;;19.96;46.27;102014.88;5044990;28;19999;-70
2023/05/16 06:16:15;;;;;;;;;;;;;;;19.95;46.12;102021.25;5039283;28;19940;-71
2023/05/16 06:18:41;;;;;;;;;;;;;;;19.95;46.34;102021.25;5032700;28;19913;-71
2023/05/16 06:21:06;;;;;;;;;;;;;;;19.95;46.06;102023.09;5032947;28;19913;-71
2023/05/16 06:23:32;;;;;;;;;;;;;;;19.94;46.00;102024.94;5035395;28;19956;-70
2023/05/16 06:25:57;;;;;;;;;;;;;;;19.94;46.08;102029.50;5032237;28;19918;-70
2023/05/16 06:28:23;;;;;;;;;;;;;;;19.94;45.97;102024.94;5032172;28;19913;-70
2023/05/16 06:30:50;;;;;;;;;;;;;;;19.93;46.20;102025.09;5031370;28;19921;-71
2023/05/16 06:33:15;;;;;;;;;;;;;;;19.93;46.14;102030.50;5033217;28;19925;-71
2023/05/16 06:35:40;;;;;;;;;;;;;;;19.93;46.10;102030.50;5030676;28;19913;-70
2023/05/16 06:38:06;;;;;;;;;;;;;;;19.92;45.85;102024.25;5038570;28;20613;-70
2023/05/16 06:40:31;;;;;;;;;;;;;;;19.93;46.00;102030.50;5035645;28;19921;-70
2023/05/16 06:42:57;;;;;;;;;;;;;;;19.93;46.01;102027.81;5036368;28;19913;-70
2023/05/16 06:45:22;;;;;;;;;;;;;;;19.91;45.70;102027.94;5035245;28;20002;-70
2023/05/16 06:47:47;;;;;;;;;;;;;;;19.92;46.00;102031.47;5031313;28;19921;-71
2023/05/16 06:50:12;;;;;;;;;;;;;;;19.92;45.88;102023.38;5036420;28;19917;-71
2023/05/16 06:52:38;;;;;;;;;;;;;;;19.93;45.88;102025.09;5032101;28;19924;-71
2023/05/16 06:55:03;;;;;;;;;;;;;;;19.92;45.81;102029.66;5029531;28;19914;-71
2023/05/16 06:57:29;;;;;;;;;;;;;;;19.92;45.70;102021.56;5031106;28;19964;-70
2023/05/16 06:59:54;;;;;;;;;;;;;;;19.92;45.64;102020.69;5034415;28;19913;-70
2023/05/16 07:02:19;;;;;;;;;;;;;;;19.92;45.52;102021.56;5031067;28;19918;-71
2023/05/16 07:04:44;;;;;;;;;;;;;;;19.92;45.51;102020.69;5035130;28;19917;-71
2023/05/16 07:07:09;;;;;;;;;;;;;;;19.92;45.39;102020.69;5032654;28;19913;-70
2023/05/16 07:09:35;;;;;;;;;;;;;;;19.92;45.46;102018.84;5036934;28;19913;-71
2023/05/16 07:12:00;;;;;;;;;;;;;;;19.93;45.48;102017.00;5036018;28;19967;-74
2023/05/16 07:14:25;;;;;;;;;;;;;;;19.93;45.54;102023.25;5054380;28;19925;-71
2023/05/16 07:16:50;;;;;;;;;;;;;;;19.96;45.55;102024.78;5054759;28;19921;-70
2023/05/16 07:19:16;;;;;;;;;;;;;;;19.96;45.93;102020.25;5050548;28;20034;-71
2023/05/16 07:21:41;;;;;;;;;;;;;;;19.98;45.96;102029.06;5051172;28;20408;-71
2023/05/16 07:24:06;;;;;;;;;;;;;;;19.98;45.99;102030.91;5052572;28;20277;-75
2023/05/16 07:26:31;;;;;;;;;;;;;;;19.98;45.91;102039.84;5052481;28;19917;-69
2023/05/16 07:28:57;;;;;;;;;;;;;;;19.97;46.49;102054.34;5049101;28;19924;-69
2023/05/16 07:31:23;;;;;;;;;;;;;;;20.03;58.74;102057.44;5055790;28;19948;-71
2023/05/16 07:33:48;;;;;;;;;;;;;;;20.03;60.20;102060.16;5053555;28;19920;-71
2023/05/16 07:36:13;;;;;;;;;;;;;;;20.00;58.15;102063.97;5053376;28;19913;-71
2023/05/16 07:38:38;;;;;;;;;;;;;;;19.96;54.60;102054.47;5056704;28;19916;-69
2023/05/16 07:41:04;;;;;;;;;;;;;;;19.91;52.33;102057.63;5054346;28;19917;-72
2023/05/16 07:43:29;;;;;;;;;;;;;;;19.89;50.80;102054.25;5054792;28;19913;-72
2023/05/16 07:45:54;;;;;;;;;;;;;;;19.87;49.66;102053.50;5052838;28;19976;-72
2023/05/16 07:48:19;;;;;;;;;;;;;;;19.86;49.38;102050.97;5043269;28;19920;-72
2023/05/16 07:50:45;;;;;;;;;;;;;;;19.85;48.94;102052.81;5055056;28;19924;-71
2023/05/16 07:53:10;;;;;;;;;;;;;;;19.85;48.70;102051.97;5032096;28;20394;-72
2023/05/16 07:55:35;;;;;;;;;;;;;;;19.84;48.44;102051.13;5050222;28;20405;-72
2023/05/16 07:58:00;;;;;;;;;;;;;;;19.84;48.19;102045.75;5046264;28;19916;-71
2023/05/16 08:00:25;;;;;;;;;;;;;;;19.84;47.76;102059.22;5063273;28;19924;-71
2023/05/16 08:02:50;;;;;;;;;;;;;;;19.84;47.66;102053.00;5049338;28;19913;-71
2023/05/16 08:05:16;;;;;;;;;;;;;;;19.84;47.28;102053.84;5057018;28;19932;-72
2023/05/16 08:07:41;;;;;;;;;;;;;;;19.85;47.37;102057.38;5052251;28;19920;-72
2023/05/16 08:10:07;;;;;;;;;;;;;;;19.85;47.05;102054.69;5053323;28;19939;-71
2023/05/16 08:12:32;;;;;;;;;;;;;;;19.85;46.78;102057.38;5054191;28;19925;-72
2023/05/16 08:14:57;;;;;;;;;;;;;;;19.85;46.63;102051.97;5048590;28;19917;-72
2023/05/16 08:17:22;;;;;;;;;;;;;;;19.85;46.52;102051.97;5056084;28;19921;-72
2023/05/16 08:19:48;;;;;;;;;;;;;;;19.86;46.29;102053.69;5050408;28;20310;-72
2023/05/16 08:22:13;;;;;;;;;;;;;;;19.86;46.05;102054.53;5053931;28;19924;-71
2023/05/16 08:24:39;;;;;;;;;;;;;;;19.87;46.30;102058.91;5049623;28;20761;-71
2023/05/16 08:27:04;;;;;;;;;;;;;;;19.87;45.98;102058.91;5052907;28;19921;-72
2023/05/16 08:29:30;;;;;;;;;;;;;;;19.87;45.74;102067.00;5047899;28;19919;-71
2023/05/16 08:31:55;;;;;;;;;;;;;;;19.87;45.60;102064.31;5042842;28;19920;-72
2023/05/16 08:34:21;;;;;;;;;;;;;;;19.87;45.33;102072.41;5054357;28;20327;-72
2023/05/16 08:36:46;;;;;;;;;;;;;;;19.88;45.13;102067.84;5050251;28;19944;-73
2023/05/16 08:39:11;;;;;;;;;;;;;;;19.88;45.40;102067.84;5057318;28;19928;-73
2023/05/16 08:41:37;;;;;;;;;;;;;;;19.88;45.13;102076.84;5047909;28;19921;-72
2023/05/16 08:44:02;;;;;;;;;;;;;;;19.89;45.12;102069.59;5039373;28;20365;-72
2023/05/16 08:46:28;;;;;;;;;;;;;;;19.90;45.28;102065.88;5050102;28;19945;-70
2023/05/16 08:48:53;;;;;;;;;;;;;;;19.90;45.13;102060.47;5051806;28;19924;-69
2023/05/16 08:51:18;;;;;;;;;;;;;;;19.90;45.08;102069.44;5050330;28;19917;-70
2023/05/16 08:53:44;;;;;;;;;;;;;;;19.92;45.39;102062.06;5036968;28;19917;-69
2023/05/16 08:56:10;;;;;;;;;;;;;;;19.95;45.44;102058.19;5049769;28;19917;-72
2023/05/16 08:58:35;;;;;;;;;;;;;;;19.97;45.33;102070.53;5043822;28;19952;-70
2023/05/16 09:01:05;;;;;;;;;;;;;;;20.01;45.53;102059.44;5034069;28;19979;-73
2023/05/16 09:03:30;;;;;;;;;;;;;;;20.04;45.53;102049.19;5033696;28;19924;-70
2023/05/16 09:05:56;;;;;;;;;;;;;;;20.07;45.70;102054.31;5040971;28;19917;-70
2023/05/16 09:08:21;;;;;;;;;;;;;;;20.08;45.46;102061.41;5034160;28;20373;-71
2023/05/16 09:10:46;;;;;;;;;;;;;;;20.10;45.84;102069.38;5048315;28;19972;-71
2023/05/16 09:13:12;;;;;;;;;;;;;;;20.09;45.67;102070.34;5052099;28;19921;-71
2023/05/16 09:15:37;;;;;;;;;;;;;;;20.09;45.65;102071.22;5049944;28;19921;-71
2023/05/16 09:18:03;;;;;;;;;;;;;;;20.09;45.54;102071.22;5049836;28;19923;-71
2023/05/16 09:20:28;;;;;;;;;;;;;;;20.11;45.59;102069.22;5051171;28;19943;-70
2023/05/16 09:22:54;;;;;;;;;;;;;;;20.12;45.55;102073.59;5048769;28;19917;-71
2023/05/16 09:25:19;;;;;;;;;;;;;;;19.62;45.60;101981.31;5048637;28;19921;-71
2023/05/16 09:27:46;;;;;;;;;;;;;;;20.14;45.79;102062.69;5038725;28;19917;-71
2023/05/16 09:30:12;;;;;;;;;;;;;;;20.15;45.72;102072.47;5040918;28;19917;-71
2023/05/16 09:32:41;;;;;;;;;;;;;;;20.13;45.76;102086.09;5056372;28;19913;-70
2023/05/16 09:35:07;;;;;;;;;;;;;;;20.13;45.85;102086.09;5043461;28;19923;-71
2023/05/16 09:37:32;;;;;;;;;;;;;;;20.12;45.90;102088.97;5045532;28;19952;-70
2023/05/16 09:39:57;;;;;;;;;;;;;;;20.13;45.95;102088.78;5054529;28;19957;-70
2023/05/16 09:42:22;;;;;;;;;;;;;;;20.14;45.89;102085.13;5048952;28;19920;-71
2023/05/16 09:44:48;;;;;;;;;;;;;;;20.15;45.89;102088.66;5035272;28;19924;-71
2023/05/16 09:47:15;;;;;;;;;;;;;;;20.15;45.65;102083.28;5029668;28;20290;-70
2023/05/16 09:49:40;;;;;;;;;;;;;;;20.14;45.97;102079.72;5056154;28;19940;-71
2023/05/16 09:52:05;;;;;;;;;;;;;;;20.15;45.77;102083.28;5030189;28;20337;-72
2023/05/16 09:54:31;;;;;;;;;;;;;;;20.15;45.71;102081.41;5052146;28;19920;-70
2023/05/16 09:56:57;;;;;;;;;;;;;;;20.16;46.00;102076.84;5049115;28;19921;-71
2023/05/16 09:59:22;;;;;;;;;;;;;;;20.16;46.14;102076.84;5053987;28;19928;-70
2023/05/16 10:01:47;;;;;;;;;;;;;;;20.16;45.81;102075.00;5055025;28;19975;-70
2023/05/16 10:04:14;;;;;;;;;;;;;;;20.17;46.08;102086.66;5035266;28;19952;-70
2023/05/16 10:06:41;;;;;;;;;;;;;;;20.17;45.66;102068.59;5052215;28;19935;-71
2023/05/16 10:09:06;;;;;;;;;;;;;;;20.18;45.92;102074.88;5031242;28;20043;-73
2023/05/16 10:11:32;;;;;;;;;;;;;;;20.18;45.87;102078.44;5033371;28;20344;-73
2023/05/16 10:13:57;;;;;;;;;;;;;;;20.20;45.74;102080.97;5035489;28;19925;-77
2023/05/16 10:16:22;;;;;;;;;;;;;;;20.20;45.98;102065.63;5031895;28;19913;-78
2023/05/16 10:18:47;;;;;;;;;;;;;;;20.21;45.68;102066.47;5036216;28;19920;-76
2023/05/16 10:21:13;;;;;;;;;;;;;;;20.22;45.62;102070.88;5052918;28;19914;-71
2023/05/16 10:23:42;;;;;;;;;;;;;;;20.23;45.77;102068.03;5036002;28;19939;-71
2023/05/16 10:26:07;;;;;;;;;;;;;;;20.25;46.02;102064.31;5037221;28;19913;-70
2023/05/16 10:28:33;;;;;;;;;;;;;;;20.25;46.15;102067.88;5040909;28;19923;-74
2023/05/16 10:30:58;;;;;;;;;;;;;;;20.27;46.00;102065.88;5026343;28;19952;-75
2023/05/16 10:33:23;;;;;;;;;;;;;;;20.28;46.07;102070.28;5039175;28;19924;-76
2023/05/16 10:35:49;;;;;;;;;;;;;;;20.30;46.07;102072.81;5053368;28;19931;-73
2023/05/16 10:38:15;;;;;;;;;;;;;;;20.31;46.26;102063.72;5032255;28;19917;-74
2023/05/16 10:40:40;;;;;;;;;;;;;;;20.30;46.03;102072.81;5036435;28;19921;-75
2023/05/16 10:43:07;;;;;;;;;;;;;;;20.30;45.94;102079.06;5034467;28;19924;-74
2023/05/16 10:45:32;;;;;;;;;;;;;;;20.31;46.02;102079.94;5033729;28;19913;-75
2023/05/16 10:47:58;;;;;;;;;;;;;;;20.32;46.10;102073.53;5019608;28;20358;-70
2023/05/16 10:50:31;;;;;;;;;;;;;;;20.33;45.92;102076.06;5037828;28;19917;-70
2023/05/16 10:52:56;;;;;;;;;;;;;;;20.35;46.28;102065.97;5047405;28;20381;-71
2023/05/16 10:55:21;;;;;;;;;;;;;;;20.36;46.28;102061.44;5036967;28;19974;-69
2023/05/16 10:57:46;;;;;;;;;;;;;;;20.36;46.18;102064.97;5045141;28;19980;-73
2023/05/16 11:00:20;;;;;;;;;;;;;;;20.37;46.21;102069.38;5046532;28;19927;-73
2023/05/16 11:02:46;;;;;;;;;;;;;;;20.39;45.97;102067.38;5052996;28;19934;-73
2023/05/16 11:05:12;;;;;;;;;;;;;;;20.39;45.83;102063.81;5052880;28;19940;-72
2023/05/16 11:07:37;;;;;;;;;;;;;;;20.39;45.99;102064.69;5036283;28;20004;-73
2023/05/16 11:10:04;;;;;;;;;;;;;;;20.39;46.27;102061.09;5033483;28;19912;-72
2023/05/16 11:12:55;;;;;;;;;;;;;;;20.40;46.31;102068.22;5030739;28;19975;-73
2023/05/16 11:15:25;;;;;;;;;;;;;;;20.41;46.06;102075.31;5049495;28;19917;-72
2023/05/16 11:17:51;;;;;;;;;;;;;;;20.42;46.19;102061.66;5035018;28;19921;-70
2023/05/16 11:20:26;;;;;;;;;;;;;;;20.42;46.31;102058.97;5050548;28;19984;-70
2023/05/16 11:22:51;;;;;;;;;;;;;;;20.42;46.04;102061.66;5045743;28;20950;-70
2023/05/16 11:25:17;;;;;;;;;;;;;;;20.43;46.07;102063.38;5032387;28;19916;-70
2023/05/16 11:27:43;;;;;;;;;;;;;;;20.45;46.10;102066.75;5046808;28;19913;-70
2023/05/16 11:30:08;;;;;;;;;;;;;;;20.46;46.25;102052.25;5045439;28;19952;-70
2023/05/16 11:32:34;;;;;;;;;;;;;;;20.49;46.26;102063.81;5055114;28;19927;-73
2023/05/16 11:35:01;;;;;;;;;;;;;;;20.50;46.23;102069.03;5035914;28;19913;-74
2023/05/16 11:37:26;;;;;;;;;;;;;;;20.53;46.21;102065.22;5050922;28;19923;-74
2023/05/16 11:39:51;;;;;;;;;;;;;;;20.55;46.04;102063.19;5050452;28;19913;-71
2023/05/16 11:42:16;;;;;;;;;;;;;;;20.56;45.97;102065.75;5031399;28;19917;-71
2023/05/16 11:44:42;;;;;;;;;;;;;;;20.58;45.99;102063.75;5035003;28;19920;-71
2023/05/16 11:47:07;;;;;;;;;;;;;;;20.60;45.94;102075.25;5042414;28;19913;-71
2023/05/16 11:49:34;;;;;;;;;;;;;;;20.60;46.08;102060.88;5022376;28;19913;-71
2023/05/16 11:51:59;;;;;;;;;;;;;;;20.60;46.36;102067.16;5033616;28;19924;-70
2023/05/16 11:54:25;;;;;;;;;;;;;;;20.61;46.06;102063.44;5054973;28;19917;-71
2023/05/16 11:56:50;;;;;;;;;;;;;;;20.64;46.31;102067.69;5037827;28;19928;-70
2023/05/16 11:59:16;;;;;;;;;;;;;;;20.65;46.36;102067.53;5050802;28;20343;-74
2023/05/16 12:01:41;;;;;;;;;;;;;;;20.66;46.11;102069.25;5041711;28;19939;-74
2023/05/16 12:04:07;;;;;;;;;;;;;;;20.69;46.19;102070.78;5050213;28;19917;-75
2023/05/16 12:06:32;;;;;;;;;;;;;;;20.69;46.17;102077.06;5044376;28;19917;-74
2023/05/16 12:08:57;;;;;;;;;;;;;;;20.69;46.42;102066.25;5051468;28;19940;-72
2023/05/16 12:11:22;;;;;;;;;;;;;;;20.72;46.46;102067.75;5053815;28;19923;-73
2023/05/16 12:13:48;;;;;;;;;;;;;;;20.72;46.30;102075.88;5049978;28;19925;-73
2023/05/16 12:16:13;;;;;;;;;;;;;;;20.74;46.42;102079.28;5033772;28;20003;-71
2023/05/16 12:18:39;;;;;;;;;;;;;;;20.75;46.50;102082.84;5024415;28;19925;-73
2023/05/16 12:21:06;;;;;;;;;;;;;;;20.76;46.44;102079.13;5034982;28;20417;-73
2023/05/16 12:23:33;;;;;;;;;;;;;;;20.75;46.05;102083.69;5057274;28;19920;-73
2023/05/16 12:26:05;;;;;;;;;;;;;;;20.76;46.33;102087.25;5047164;28;19917;-73
2023/05/16 12:28:33;;;;;;;;;;;;;;;20.74;46.31;102087.41;5058659;28;19952;-73